Time;durP1;ratioP1;P1;durP2;ratioP2;P2;SDS_P1;SDS_P2;PMS_P1;PMS_P2;Temp;Humidity;BMP_temperature;BMP_pressure;BME280_temperature;BME280_humidity;BME280_pressure;Samples;Min_cycle;Max_cycle;Signal;HPM_P1;HPM_P2
2022/04/01 00:00:01;;;;;;;15.52;6.30;;;;;;;-145.13;100.00;63600.38;5135909;28;20229;-65
2022/04/01 00:02:28;;;;;;;23.05;6.93;;;;;;;-145.13;100.00;63600.38;5136202;28;20175;-65
2022/04/01 00:04:55;;;;;;;17.52;7.13;;;;;;;-145.13;100.00;63600.38;5135321;28;20199;-65
2022/04/01 00:07:23;;;;;;;18.20;7.50;;;;;;;-145.13;100.00;63600.38;5136220;28;20176;-65
2022/04/01 00:09:50;;;;;;;16.63;6.55;;;;;;;-145.13;100.00;63600.38;5154709;27;20222;-65
2022/04/01 00:12:17;;;;;;;17.08;7.45;;;;;;;-145.13;100.00;63600.38;5138804;27;20228;-65
2022/04/01 00:14:44;;;;;;;20.98;7.00;;;;;;;-145.13;100.00;63600.38;5156764;27;20187;-65
2022/04/01 00:17:11;;;;;;;19.58;7.00;;;;;;;-145.13;100.00;63600.38;5138272;27;20190;-65
2022/04/01 00:19:38;;;;;;;20.33;6.63;;;;;;;-145.13;100.00;63600.38;5138620;27;20198;-65
2022/04/01 00:22:04;;;;;;;21.00;7.88;;;;;;;-145.13;100.00;63600.38;5138552;27;20190;-65
2022/04/01 00:24:33;;;;;;;16.80;5.88;;;;;;;-145.13;100.00;63600.38;5156389;27;20239;-65
2022/04/01 00:27:00;;;;;;;23.48;8.55;;;;;;;-145.13;100.00;63600.38;5159147;27;20182;-65
2022/04/01 00:29:27;;;;;;;17.00;6.85;;;;;;;-145.13;100.00;63600.38;5160777;27;20198;-65
2022/04/01 00:31:58;;;;;;;18.25;7.28;;;;;;;-145.13;100.00;63600.38;5160609;27;20214;-65
2022/04/01 00:34:26;;;;;;;21.92;7.85;;;;;;;-145.13;100.00;63600.38;5160603;27;20239;-65
2022/04/01 00:36:54;;;;;;;22.90;7.78;;;;;;;-145.13;100.00;63600.38;5160603;27;20301;-65
2022/04/01 00:39:22;;;;;;;19.52;7.13;;;;;;;-145.13;100.00;63600.38;5142507;27;20225;-65
2022/04/01 00:41:51;;;;;;;19.50;7.60;;;;;;;-145.13;100.00;63600.38;5141888;27;20257;-66
2022/04/01 00:44:20;;;;;;;21.40;8.70;;;;;;;-145.13;100.00;63600.38;5142007;27;20198;-66
2022/04/01 00:46:49;;;;;;;25.88;9.15;;;;;;;-145.13;100.00;63600.38;5142445;27;20197;-66
2022/04/01 00:49:16;;;;;;;20.48;8.30;;;;;;;-145.13;100.00;63600.38;5160091;27;20196;-66
2022/04/01 00:51:44;;;;;;;21.55;8.43;;;;;;;-145.13;100.00;63600.38;5160077;27;20198;-66
2022/04/01 00:54:11;;;;;;;21.30;8.50;;;;;;;-145.13;100.00;63600.38;5160449;27;20182;-65
2022/04/01 00:56:39;;;;;;;21.50;8.98;;;;;;;-145.13;100.00;63600.38;5160206;27;20287;-65
2022/04/01 00:59:08;;;;;;;21.52;8.82;;;;;;;-145.13;100.00;63600.38;5160163;27;20632;-64
2022/04/01 01:01:37;;;;;;;20.38;8.25;;;;;;;-145.13;100.00;63600.38;5141597;27;20637;-64
2022/04/01 01:04:04;;;;;;;24.70;9.43;;;;;;;-145.13;100.00;63600.38;5160166;27;20214;-64
2022/04/01 01:06:33;;;;;;;24.35;9.32;;;;;;;-145.13;100.00;63600.38;5159882;27;20179;-64
2022/04/01 01:09:00;;;;;;;21.58;8.50;;;;;;;-145.13;100.00;63600.38;5159689;27;20241;-64
2022/04/01 01:11:27;;;;;;;21.85;9.35;;;;;;;-145.13;100.00;63600.38;5160023;27;20183;-65
2022/04/01 01:13:54;;;;;;;21.73;8.85;;;;;;;-145.13;100.00;63600.38;5159554;27;20229;-65
2022/04/01 01:16:23;;;;;;;19.48;8.63;;;;;;;-145.13;100.00;63600.38;5159888;27;20633;-65
2022/04/01 01:19:05;;;;;;;22.77;9.60;;;;;;;-145.13;100.00;63600.38;5159703;27;20188;-65
2022/04/01 01:21:32;;;;;;;24.52;9.00;;;;;;;-145.13;100.00;63600.38;5138920;27;20206;-65
2022/04/01 01:24:03;;;;;;;24.90;9.32;;;;;;;-145.13;100.00;63600.38;5141543;27;20194;-65
2022/04/01 01:26:32;;;;;;;24.17;9.52;;;;;;;-145.13;100.00;63600.38;5159608;27;20198;-65
2022/04/01 01:28:59;;;;;;;24.58;8.80;;;;;;;-145.13;100.00;63600.38;5141822;27;20293;-65
2022/04/01 01:31:26;;;;;;;26.50;8.95;;;;;;;-145.13;100.00;63600.38;5141426;27;20222;-65
2022/04/01 01:33:55;;;;;;;22.38;8.73;;;;;;;-145.13;100.00;63600.38;5159502;27;20190;-65
2022/04/01 01:36:23;;;;;;;23.55;8.70;;;;;;;-145.13;100.00;63600.38;5159164;27;20237;-65
2022/04/01 01:38:50;;;;;;;24.77;9.30;;;;;;;-145.13;100.00;63600.38;5140438;27;20606;-65
2022/04/01 01:41:16;;;;;;;23.42;8.90;;;;;;;-145.13;100.00;63600.38;5141209;27;20212;-65
2022/04/01 01:43:45;;;;;;;23.95;8.45;;;;;;;-145.13;100.00;63600.38;5158990;27;20218;-65
2022/04/01 01:46:12;;;;;;;27.30;8.75;;;;;;;-145.13;100.00;63600.38;5159224;27;20622;-65
2022/04/01 01:48:39;;;;;;;27.25;8.80;;;;;;;-145.13;100.00;63600.38;5141523;27;20197;-65
2022/04/01 01:56:35;;;;;;;21.85;8.55;;;;;;;-145.13;100.00;63600.38;5158727;27;20194;-65
2022/04/01 01:59:04;;;;;;;24.50;10.43;;;;;;;-145.13;100.00;63600.38;5159049;27;20206;-65
2022/04/01 02:01:31;;;;;;;29.00;9.77;;;;;;;-145.13;100.00;63600.38;5158712;27;20195;-65
2022/04/01 02:04:00;;;;;;;27.00;8.77;;;;;;;-145.13;100.00;63600.38;5140840;27;20195;-65
2022/04/01 02:06:27;;;;;;;26.02;9.95;;;;;;;-145.13;100.00;63600.38;5141366;27;20213;-65
2022/04/01 02:08:54;;;;;;;23.70;9.35;;;;;;;-145.13;100.00;63600.38;5158770;27;20301;-65
2022/04/01 02:11:21;;;;;;;25.55;9.32;;;;;;;-145.13;100.00;63600.38;5158521;27;20582;-65
2022/04/01 02:13:48;;;;;;;23.70;8.60;;;;;;;-145.13;100.00;63600.38;5158388;27;20214;-65
2022/04/01 02:16:17;;;;;;;27.50;9.73;;;;;;;-145.13;100.00;63600.38;5140199;27;20297;-65
2022/04/01 02:18:44;;;;;;;27.88;9.50;;;;;;;-145.13;100.00;63600.38;5140483;27;20190;-66
2022/04/01 02:21:11;;;;;;;23.38;8.20;;;;;;;-145.13;100.00;63600.38;5158560;27;20233;-65
2022/04/01 02:23:39;;;;;;;27.13;9.35;;;;;;;-145.13;100.00;63600.38;5140433;27;20201;-65
2022/04/01 02:26:07;;;;;;;32.63;10.40;;;;;;;-145.13;100.00;63600.38;5158514;27;20186;-66
2022/04/01 02:28:34;;;;;;;28.55;8.77;;;;;;;-145.13;100.00;63600.38;5140756;27;20225;-66
2022/04/01 02:31:01;;;;;;;24.42;9.52;;;;;;;-145.13;100.00;63600.38;5158614;27;20189;-66
2022/04/01 02:33:29;;;;;;;32.55;10.68;;;;;;;-145.13;100.00;63600.38;5158009;27;20636;-66
2022/04/01 02:35:57;;;;;;;28.30;10.10;;;;;;;-145.13;100.00;63600.38;5158212;27;20314;-66
2022/04/01 02:38:25;;;;;;;31.50;9.90;;;;;;;-145.13;100.00;63600.38;5157984;27;20190;-66
2022/04/01 02:40:53;;;;;;;26.65;10.27;;;;;;;-145.13;100.00;63600.38;5157993;27;20201;-65
2022/04/01 02:43:20;;;;;;;31.42;10.13;;;;;;;-145.13;100.00;63600.38;5140006;27;20198;-65
2022/04/01 02:45:48;;;;;;;39.97;10.35;;;;;;;-145.13;100.00;63600.38;5140262;27;20221;-65
2022/04/01 02:48:16;;;;;;;29.42;9.85;;;;;;;-145.13;100.00;63600.38;5139729;27;20220;-65
2022/04/01 02:50:45;;;;;;;26.88;8.75;;;;;;;-145.13;100.00;63600.38;5138463;27;20202;-65
2022/04/01 02:53:12;;;;;;;31.48;11.27;;;;;;;-145.13;100.00;63600.38;5158112;27;20549;-65
2022/04/01 02:55:40;;;;;;;34.17;9.60;;;;;;;-145.13;100.00;63600.38;5158009;27;20182;-65
2022/04/01 02:58:07;;;;;;;33.13;10.02;;;;;;;-145.13;100.00;63600.38;5158020;27;20186;-65
2022/04/01 03:00:35;;;;;;;37.13;10.63;;;;;;;-145.13;100.00;63600.38;5140012;27;20502;-65
2022/04/01 03:03:06;;;;;;;35.85;11.80;;;;;;;-145.13;100.00;63600.38;5157872;27;20193;-65
2022/04/01 03:05:33;;;;;;;27.77;10.25;;;;;;;-145.13;100.00;63600.38;5139238;27;20208;-65
2022/04/01 03:08:04;;;;;;;29.58;10.15;;;;;;;-145.13;100.00;63600.38;5139245;27;20269;-65
2022/04/01 03:10:32;;;;;;;35.15;11.10;;;;;;;-145.13;100.00;63600.38;5139615;27;20194;-66
2022/04/01 03:13:00;;;;;;;29.48;10.25;;;;;;;-145.13;100.00;63600.38;5139448;27;20226;-65
2022/04/01 03:15:28;;;;;;;26.55;11.00;;;;;;;-145.13;100.00;63600.38;5139271;27;20233;-65
2022/04/01 03:17:55;;;;;;;31.52;9.65;;;;;;;-145.13;100.00;63600.38;5157454;27;20231;-66
2022/04/01 03:20:22;;;;;;;36.60;11.30;;;;;;;-145.13;100.00;63600.38;5139418;27;20222;-66
2022/04/01 03:22:50;;;;;;;32.22;9.82;;;;;;;-145.13;100.00;63600.38;5157467;27;20191;-66
2022/04/01 03:25:20;;;;;;;35.45;11.25;;;;;;;-145.13;100.00;63600.38;5157341;27;20590;-66
2022/04/01 03:27:47;;;;;;;40.33;11.88;;;;;;;-145.13;100.00;63600.38;5157501;27;20175;-66
2022/04/01 03:30:14;;;;;;;38.50;11.75;;;;;;;-145.13;100.00;63600.38;5157057;27;20190;-65
2022/04/01 03:32:41;;;;;;;40.28;11.95;;;;;;;-145.13;100.00;63600.38;5156997;27;20218;-68
2022/04/01 03:35:12;;;;;;;33.63;10.88;;;;;;;-145.13;100.00;63600.38;5139395;27;20225;-65
2022/04/01 03:37:39;;;;;;;37.42;12.02;;;;;;;-145.13;100.00;63600.38;5157108;27;20243;-66
2022/04/01 03:40:07;;;;;;;40.40;11.18;;;;;;;-145.13;100.00;63600.38;5156862;27;20516;-65
2022/04/01 03:42:35;;;;;;;38.35;11.27;;;;;;;-145.13;100.00;63600.38;5157196;27;20225;-66
2022/04/01 03:45:03;;;;;;;31.90;9.93;;;;;;;-145.13;100.00;63600.38;5156793;27;20182;-66
2022/04/01 03:47:33;;;;;;;35.20;10.40;;;;;;;-145.13;100.00;63600.38;5139562;27;20286;-66
2022/04/01 03:50:02;;;;;;;30.85;9.15;;;;;;;-145.13;100.00;63600.38;5138774;27;20225;-66
2022/04/01 03:52:32;;;;;;;30.40;9.70;;;;;;;-145.13;100.00;63600.38;5157070;27;20198;-66
2022/04/01 03:55:04;;;;;;;31.95;9.32;;;;;;;-145.13;100.00;63600.38;5157116;27;20215;-66
2022/04/01 03:57:36;;;;;;;45.63;15.25;;;;;;;-145.13;100.00;63600.38;5138719;27;20217;-65
2022/04/01 04:00:07;;;;;;;29.92;9.43;;;;;;;-145.13;100.00;63600.38;5156972;27;20206;-65
2022/04/01 04:02:35;;;;;;;30.88;8.90;;;;;;;-145.13;100.00;63600.38;5155916;27;20519;-67
2022/04/01 04:05:02;;;;;;;33.03;9.30;;;;;;;-145.13;100.00;63600.38;5156896;27;20209;-66
2022/04/01 04:07:31;;;;;;;42.72;10.45;;;;;;;-145.13;100.00;63600.38;5156600;27;20218;-67
2022/04/01 04:09:59;;;;;;;32.47;8.73;;;;;;;-145.13;100.00;63600.38;5134877;28;20223;-66
2022/04/01 04:12:30;;;;;;;34.08;8.95;;;;;;;-145.13;100.00;63600.38;5136629;28;20514;-67
2022/04/01 04:14:59;;;;;;;41.05;10.38;;;;;;;-145.13;100.00;63600.38;5136214;28;20199;-67
2022/04/01 04:17:35;;;;;;;41.95;10.80;;;;;;;-145.13;100.00;63600.38;5135396;27;20458;-67
2022/04/01 04:20:05;;;;;;;41.47;10.18;;;;;;;-145.13;100.00;63600.38;5133518;28;20415;-67
2022/04/01 04:22:35;;;;;;;52.00;11.45;;;;;;;-145.13;100.00;63600.38;5134318;28;20913;-67
2022/04/01 04:25:10;;;;;;;42.42;11.52;;;;;;;-145.13;100.00;63600.38;5135088;28;20610;-66
2022/04/01 04:27:38;;;;;;;43.03;10.35;;;;;;;-145.13;100.00;63600.38;5134713;28;20630;-66
2022/04/01 04:30:08;;;;;;;48.58;10.55;;;;;;;-145.13;100.00;63600.38;5136300;28;20209;-66
2022/04/01 04:32:37;;;;;;;40.00;10.18;;;;;;;-145.13;100.00;63600.38;5135117;28;20191;-66
2022/04/01 04:35:06;;;;;;;44.58;10.52;;;;;;;-145.13;100.00;63600.38;5136199;28;20183;-66
2022/04/01 04:37:34;;;;;;;40.00;10.35;;;;;;;-145.13;100.00;63600.38;5135013;28;20207;-66
2022/04/01 04:40:02;;;;;;;43.75;11.63;;;;;;;-145.13;100.00;63600.38;5135443;27;20183;-66
2022/04/01 04:42:29;;;;;;;40.70;10.23;;;;;;;-145.13;100.00;63600.38;5135501;28;20179;-66
2022/04/01 04:44:56;;;;;;;40.47;12.20;;;;;;;-145.13;100.00;63600.38;5135487;28;20599;-66
2022/04/01 04:47:28;;;;;;;35.30;9.18;;;;;;;-145.13;100.00;63600.38;5134777;28;20230;-66
2022/04/01 04:49:57;;;;;;;43.53;10.10;;;;;;;-145.13;100.00;63600.38;5135432;27;20210;-66
2022/04/01 04:52:28;;;;;;;51.25;11.45;;;;;;;-145.13;100.00;63600.38;5135369;28;20193;-66
2022/04/01 04:54:55;;;;;;;46.28;11.55;;;;;;;-145.13;100.00;63600.38;5135192;28;20202;-66
2022/04/01 04:57:22;;;;;;;46.20;11.50;;;;;;;-145.13;100.00;63600.38;5135589;28;20202;-65
2022/04/01 04:59:51;;;;;;;41.78;10.18;;;;;;;-145.13;100.00;63600.38;5135585;28;20195;-70
2022/04/01 05:02:29;;;;;;;40.60;10.10;;;;;;;-145.13;100.00;63600.38;5135290;28;20175;-65
2022/04/01 05:05:04;;;;;;;46.47;12.65;;;;;;;-145.13;100.00;63600.38;5135289;28;20195;-67
2022/04/01 05:07:38;;;;;;;42.65;12.73;;;;;;;-145.13;100.00;63600.38;5133668;28;20427;-66
2022/04/01 05:10:07;;;;;;;43.33;10.75;;;;;;;-145.13;100.00;63600.38;5134757;28;20237;-65
2022/04/01 05:12:37;;;;;;;41.95;11.73;;;;;;;-145.13;100.00;63600.38;5135372;27;20260;-66
2022/04/01 05:15:08;;;;;;;43.53;11.82;;;;;;;-145.13;100.00;63600.38;5139336;27;20230;-67
2022/04/01 05:17:37;;;;;;;47.17;13.85;;;;;;;-145.13;100.00;63600.38;5138819;27;20206;-68
2022/04/01 05:20:11;;;;;;;51.30;12.90;;;;;;;-145.13;100.00;63600.38;5138184;27;20237;-65
2022/04/01 05:22:48;;;;;;;41.70;11.40;;;;;;;-145.13;100.00;63600.38;5138367;27;20194;-65
2022/04/01 05:25:19;;;;;;;52.30;14.73;;;;;;;-145.13;100.00;63600.38;5139304;27;20191;-65
2022/04/01 05:27:49;;;;;;;46.03;11.00;;;;;;;-145.13;100.00;63600.38;5139102;27;20175;-65
2022/04/01 05:30:17;;;;;;;38.63;11.25;;;;;;;-145.13;100.00;63600.38;5138486;27;20191;-65
2022/04/01 05:32:58;;;;;;;34.08;10.93;;;;;;;-145.13;100.00;63600.38;5138544;27;20563;-65
2022/04/01 05:35:27;;;;;;;40.72;12.43;;;;;;;-145.13;100.00;63600.38;5138989;27;20187;-65
2022/04/01 05:37:55;;;;;;;47.28;11.15;;;;;;;-145.13;100.00;63600.38;5138510;27;20203;-65
2022/04/01 05:40:23;;;;;;;48.13;12.05;;;;;;;-145.13;100.00;63600.38;5138405;27;20218;-65
2022/04/01 05:42:49;;;;;;;42.05;11.98;;;;;;;-145.13;100.00;63600.38;5138963;27;20191;-65
2022/04/01 05:45:18;;;;;;;41.20;11.90;;;;;;;-145.13;100.00;63600.38;5138617;27;20195;-65
2022/04/01 05:47:45;;;;;;;50.78;12.13;;;;;;;-145.13;100.00;63600.38;5137192;27;20183;-65
2022/04/01 05:50:18;;;;;;;47.58;14.02;;;;;;;-145.13;100.00;63600.38;5138823;27;20218;-66
2022/04/01 05:52:47;;;;;;;43.25;12.75;;;;;;;-145.13;100.00;63600.38;5137670;27;20202;-65
2022/04/01 05:55:15;;;;;;;44.30;12.80;;;;;;;-145.13;100.00;63600.38;5137618;27;20205;-66
2022/04/01 05:57:42;;;;;;;48.92;12.73;;;;;;;-145.13;100.00;63600.38;5137224;27;20211;-65
2022/04/01 06:00:12;;;;;;;47.28;12.23;;;;;;;-145.13;100.00;63600.38;5137714;27;20223;-64
2022/04/01 06:02:54;;;;;;;31.30;10.50;;;;;;;-145.13;100.00;63600.38;5138520;27;20187;-65
2022/04/01 06:05:25;;;;;;;40.25;11.43;;;;;;;-145.13;100.00;63600.38;5137061;27;20203;-65
2022/04/01 06:08:01;;;;;;;44.80;10.45;;;;;;;-145.13;100.00;63600.38;5138761;27;20199;-65
2022/04/01 06:10:37;;;;;;;39.85;9.40;;;;;;;-145.13;100.00;63600.38;5140707;27;20198;-65
2022/04/01 06:13:10;;;;;;;36.03;10.10;;;;;;;-145.13;100.00;63600.38;5158945;27;20178;-65
2022/04/01 06:15:44;;;;;;;42.22;11.85;;;;;;;-145.13;100.00;63600.38;5158880;27;20208;-65
2022/04/01 06:18:19;;;;;;;32.58;9.63;;;;;;;-145.13;100.00;63600.38;5141250;27;20262;-65
2022/04/01 06:20:49;;;;;;;35.42;9.43;;;;;;;-145.13;100.00;63600.38;5158708;27;20194;-66
2022/04/01 06:23:25;;;;;;;32.78;11.00;;;;;;;-145.13;100.00;63600.38;5140382;27;20191;-66
2022/04/01 06:25:57;;;;;;;37.50;10.38;;;;;;;-145.13;100.00;63600.38;5158749;27;20262;-69
2022/04/01 06:28:25;;;;;;;34.80;9.57;;;;;;;-145.13;100.00;63600.38;5139425;27;20417;-70
2022/04/01 06:30:54;;;;;;;41.53;8.68;;;;;;;-145.13;100.00;63600.38;5158564;27;20283;-68
2022/04/01 06:33:30;;;;;;;30.55;8.90;;;;;;;-145.13;100.00;63600.38;5140540;27;20202;-68
2022/04/01 06:36:01;;;;;;;30.50;9.30;;;;;;;-145.13;100.00;63600.38;5158107;27;20634;-68
2022/04/01 06:38:36;;;;;;;31.95;9.55;;;;;;;-145.13;100.00;63600.38;5158380;27;20198;-68
2022/04/01 06:41:06;;;;;;;32.78;9.00;;;;;;;-145.13;100.00;63600.38;5140738;27;20269;-68
2022/04/01 06:43:34;;;;;;;33.55;9.88;;;;;;;-145.13;100.00;63600.38;5139912;27;20205;-66
2022/04/01 06:46:01;;;;;;;31.10;9.65;;;;;;;-145.13;100.00;63600.38;5139749;27;20202;-66
2022/04/01 06:48:28;;;;;;;41.38;10.43;;;;;;;-145.13;100.00;63600.38;5157917;27;20251;-66
2022/04/01 06:50:56;;;;;;;29.20;10.25;;;;;;;-145.13;100.00;63600.38;5140034;27;20236;-66
2022/04/01 06:53:25;;;;;;;37.92;10.15;;;;;;;-145.13;100.00;63600.38;5140162;27;20237;-66
2022/04/01 06:55:52;;;;;;;35.45;10.40;;;;;;;-145.13;100.00;63600.38;5157808;27;20178;-67
2022/04/01 06:58:19;;;;;;;38.45;11.50;;;;;;;-145.13;100.00;63600.38;5156839;27;20536;-66
2022/04/01 07:00:46;;;;;;;33.42;11.30;;;;;;;-145.13;100.00;63600.38;5139137;27;20909;-69
2022/04/01 07:03:14;;;;;;;37.30;11.13;;;;;;;-145.13;100.00;63600.38;5158403;27;20178;-65
2022/04/01 07:05:41;;;;;;;34.25;10.75;;;;;;;-145.13;100.00;63600.38;5158445;27;20202;-66
2022/04/01 07:08:08;;;;;;;41.28;11.48;;;;;;;-145.13;100.00;63600.38;5157480;27;20261;-66
2022/04/01 07:10:38;;;;;;;32.47;10.35;;;;;;;-145.13;100.00;63600.38;5139799;27;20591;-66
2022/04/01 07:13:06;;;;;;;36.80;11.60;;;;;;;-145.13;100.00;63600.38;5158216;27;20211;-66
2022/04/01 07:15:32;;;;;;;30.52;9.95;;;;;;;-145.13;100.00;63600.38;5139767;27;20194;-66
2022/04/01 07:17:59;;;;;;;37.80;10.80;;;;;;;-145.13;100.00;63600.38;5157698;27;20285;-66
2022/04/01 07:20:26;;;;;;;38.42;10.95;;;;;;;-145.13;100.00;63600.38;5157413;27;20174;-66
2022/04/01 07:22:54;;;;;;;36.53;11.27;;;;;;;-145.13;100.00;63600.38;5157880;27;20183;-65
2022/04/01 07:25:22;;;;;;;37.33;11.63;;;;;;;-145.13;100.00;63600.38;5157488;27;20194;-65
2022/04/01 07:27:50;;;;;;;34.28;11.50;;;;;;;-145.13;100.00;63600.38;5157156;27;20508;-67
2022/04/01 07:30:17;;;;;;;32.67;10.65;;;;;;;-145.13;100.00;63600.38;5157803;27;20483;-66
2022/04/01 07:32:44;;;;;;;33.55;10.52;;;;;;;-145.13;100.00;63600.38;5139528;27;20247;-67
2022/04/01 07:35:13;;;;;;;37.47;11.35;;;;;;;-145.13;100.00;63600.38;5157082;27;20218;-67
2022/04/01 07:37:41;;;;;;;40.22;11.02;;;;;;;-145.13;100.00;63600.38;5157037;27;20254;-67
2022/04/01 07:40:09;;;;;;;38.92;11.02;;;;;;;-145.13;100.00;63600.38;5157374;27;20527;-67
2022/04/01 07:42:38;;;;;;;34.45;11.00;;;;;;;-145.13;100.00;63600.38;5156998;27;20213;-67
2022/04/01 07:45:08;;;;;;;38.17;11.30;;;;;;;-145.13;100.00;63600.38;5157544;27;20179;-67
2022/04/01 07:47:35;;;;;;;42.40;11.65;;;;;;;-145.13;100.00;63600.38;5157008;27;20178;-67
2022/04/01 07:50:03;;;;;;;38.78;11.60;;;;;;;-145.13;100.00;63600.38;5156704;27;20472;-66
2022/04/01 07:52:30;;;;;;;36.00;10.32;;;;;;;-145.13;100.00;63600.38;5139590;27;20182;-66
2022/04/01 07:54:57;;;;;;;33.90;9.93;;;;;;;-145.13;100.00;63600.38;5139405;27;20198;-66
2022/04/01 07:57:24;;;;;;;39.40;9.25;;;;;;;-145.13;100.00;63600.38;5156833;27;20292;-66
2022/04/01 07:59:51;;;;;;;40.75;11.23;;;;;;;-145.13;100.00;63600.38;5157104;27;20221;-65
2022/04/01 08:02:19;;;;;;;34.72;10.75;;;;;;;-145.13;100.00;63600.38;5138668;27;20182;-65
2022/04/01 08:04:46;;;;;;;40.63;10.15;;;;;;;-145.13;100.00;63600.38;5157123;27;20183;-65
2022/04/01 08:07:13;;;;;;;44.38;10.32;;;;;;;-145.13;100.00;63600.38;5157084;27;20202;-65
2022/04/01 08:09:40;;;;;;;40.42;10.63;;;;;;;-145.13;100.00;63600.38;5156584;27;20234;-65
2022/04/01 08:12:08;;;;;;;38.72;11.35;;;;;;;-145.13;100.00;63600.38;5157106;27;20217;-65
2022/04/01 08:14:36;;;;;;;39.15;11.77;;;;;;;-145.13;100.00;63600.38;5139103;27;20209;-66
2022/04/01 08:17:03;;;;;;;42.58;11.95;;;;;;;-145.13;100.00;63600.38;5138829;27;20293;-65
2022/04/01 08:19:32;;;;;;;36.47;10.50;;;;;;;-145.13;100.00;63600.38;5156754;27;20622;-66
2022/04/01 08:21:59;;;;;;;38.63;12.27;;;;;;;-145.13;100.00;63600.38;5139048;27;20240;-66
2022/04/01 08:24:26;;;;;;;42.35;13.52;;;;;;;-145.13;100.00;63600.38;5138835;27;20198;-66
2022/04/01 08:26:53;;;;;;;36.67;11.57;;;;;;;-145.13;100.00;63600.38;5139103;27;20230;-65
2022/04/01 08:29:22;;;;;;;41.35;11.05;;;;;;;-145.13;100.00;63600.38;5138950;27;20225;-67
2022/04/01 08:31:49;;;;;;;38.70;11.75;;;;;;;-145.13;100.00;63600.38;5156634;27;20233;-66
2022/04/01 08:34:16;;;;;;;46.65;12.27;;;;;;;-145.13;100.00;63600.38;5156843;27;20189;-66
2022/04/01 08:36:44;;;;;;;38.40;11.40;;;;;;;-145.13;100.00;63600.38;5156944;27;20210;-66
2022/04/01 08:39:11;;;;;;;34.80;9.38;;;;;;;-145.13;100.00;63600.38;5156493;27;20309;-66
2022/04/01 08:41:38;;;;;;;40.10;11.35;;;;;;;-145.13;100.00;63600.38;5156463;27;20174;-66
2022/04/01 08:44:06;;;;;;;38.63;12.65;;;;;;;-145.13;100.00;63600.38;5156715;27;20314;-66
2022/04/01 08:46:33;;;;;;;40.60;10.93;;;;;;;-145.13;100.00;63600.38;5139109;27;20209;-65
2022/04/01 08:49:01;;;;;;;36.75;10.48;;;;;;;-145.13;100.00;63600.38;5160650;27;20182;-65
2022/04/01 08:51:28;;;;;;;35.83;11.57;;;;;;;-145.13;100.00;63600.38;5160689;27;20195;-66
2022/04/01 08:53:56;;;;;;;29.95;10.82;;;;;;;-145.13;100.00;63600.38;5142646;27;20190;-66
2022/04/01 08:56:23;;;;;;;38.70;11.55;;;;;;;-145.13;100.00;63600.38;5142376;27;20232;-66
2022/04/01 08:58:50;;;;;;;45.95;12.13;;;;;;;-145.13;100.00;63600.38;5160492;27;20207;-65
2022/04/01 09:01:17;;;;;;;42.83;13.57;;;;;;;-145.13;100.00;63600.38;5160329;27;20187;-65
2022/04/01 09:03:44;;;;;;;40.00;12.77;;;;;;;-145.13;100.00;63600.38;5142205;27;20194;-65
2022/04/01 09:06:12;;;;;;;38.25;11.13;;;;;;;-145.13;100.00;63600.38;5160509;27;20312;-65
2022/04/01 09:08:39;;;;;;;32.50;12.05;;;;;;;-145.13;100.00;63600.38;5160252;27;20230;-66
2022/04/01 09:11:09;;;;;;;36.30;11.98;;;;;;;-145.13;100.00;63600.38;5142216;27;20194;-66
2022/04/01 09:13:48;;;;;;;37.80;11.57;;;;;;;-145.13;100.00;63600.38;5141906;27;20178;-66
2022/04/01 09:16:27;;;;;;;38.33;11.23;;;;;;;-145.13;100.00;63600.38;5159960;27;20197;-66
2022/04/01 09:18:56;;;;;;;34.75;11.45;;;;;;;-145.13;100.00;63600.38;5159706;27;20198;-67
2022/04/01 09:21:27;;;;;;;36.20;12.23;;;;;;;-145.13;100.00;63600.38;5143856;27;20324;-66
2022/04/01 09:23:54;;;;;;;32.95;12.05;;;;;;;-145.13;100.00;63600.38;5143424;27;20190;-66
2022/04/01 09:26:29;;;;;;;36.30;11.70;;;;;;;-145.13;100.00;63600.38;5141207;27;20422;-66
2022/04/01 09:28:56;;;;;;;39.58;11.18;;;;;;;-145.13;100.00;63600.38;5160035;27;20221;-66
2022/04/01 09:31:25;;;;;;;35.25;12.27;;;;;;;-145.13;100.00;63600.38;5141365;27;20236;-66
2022/04/01 09:33:54;;;;;;;39.00;10.70;;;;;;;-145.13;100.00;63600.38;5141297;27;20297;-66
2022/04/01 09:36:25;;;;;;;40.55;11.02;;;;;;;-145.13;100.00;63600.38;5159672;27;20186;-65
2022/04/01 09:39:00;;;;;;;34.80;11.57;;;;;;;-145.13;100.00;63600.38;5159636;27;20214;-66
2022/04/01 09:41:37;;;;;;;34.95;11.98;;;;;;;-145.13;100.00;63600.38;5159320;27;20242;-66
2022/04/01 09:44:08;;;;;;;35.42;10.52;;;;;;;-145.13;100.00;63600.38;5159403;27;20200;-66
2022/04/01 09:46:35;;;;;;;37.15;12.27;;;;;;;-145.13;100.00;63600.38;5159674;27;20528;-66
2022/04/01 09:49:02;;;;;;;32.33;11.15;;;;;;;-145.13;100.00;63600.38;5159653;27;20495;-67
2022/04/01 09:51:32;;;;;;;33.90;11.43;;;;;;;-145.13;100.00;63600.38;5159485;27;20620;-67
2022/04/01 09:54:03;;;;;;;37.20;10.85;;;;;;;-145.13;100.00;63600.38;5159273;27;20525;-65
2022/04/01 09:56:40;;;;;;;33.30;10.65;;;;;;;-145.13;100.00;63600.38;5140734;27;20194;-65
2022/04/01 09:59:08;;;;;;;44.55;12.70;;;;;;;-145.13;100.00;63600.38;5158532;27;20232;-65
2022/04/01 10:01:35;;;;;;;38.22;11.95;;;;;;;-145.13;100.00;63600.38;5141067;27;20226;-65
2022/04/01 10:04:03;;;;;;;37.05;11.60;;;;;;;-145.13;100.00;63600.38;5158956;27;20221;-65
2022/04/01 10:06:32;;;;;;;36.85;10.88;;;;;;;-145.13;100.00;63600.38;5159144;27;20251;-65
2022/04/01 10:09:02;;;;;;;35.85;10.35;;;;;;;-145.13;100.00;63600.38;5158881;27;20260;-66
2022/04/01 10:11:31;;;;;;;35.40;10.95;;;;;;;-145.13;100.00;63600.38;5159015;27;20617;-65
2022/04/01 10:14:03;;;;;;;35.70;10.45;;;;;;;-145.13;100.00;63600.38;5158484;27;20224;-64
2022/04/01 10:16:33;;;;;;;32.20;9.48;;;;;;;-145.13;100.00;63600.38;5158918;27;20186;-65
2022/04/01 10:19:05;;;;;;;34.78;10.35;;;;;;;-145.13;100.00;63600.38;5158699;27;20216;-68
2022/04/01 10:21:32;;;;;;;34.00;10.07;;;;;;;-145.13;100.00;63600.38;5140804;27;20190;-65
2022/04/01 10:24:04;;;;;;;30.42;9.98;;;;;;;-145.13;100.00;63600.38;5158997;27;20273;-65
2022/04/01 10:26:33;;;;;;;34.30;9.82;;;;;;;-145.13;100.00;63600.38;5140661;27;20226;-65
2022/04/01 10:29:03;;;;;;;35.78;10.40;;;;;;;-145.13;100.00;63600.38;5157648;27;20433;-65
2022/04/01 10:31:30;;;;;;;34.47;10.20;;;;;;;-145.13;100.00;63600.38;5158597;27;20189;-65
2022/04/01 10:34:21;;;;;;;29.92;8.88;;;;;;;-145.13;100.00;63600.38;5158495;27;20198;-65
2022/04/01 10:36:54;;;;;;;33.97;9.27;;;;;;;-145.13;100.00;63600.38;5140868;27;20281;-65
2022/04/01 10:39:21;;;;;;;29.55;10.70;;;;;;;-145.13;100.00;63600.38;5140379;27;20257;-64
2022/04/01 10:42:06;;;;;;;37.25;9.82;;;;;;;-145.13;100.00;63600.38;5158143;27;20195;-65
2022/04/01 10:44:48;;;;;;;32.50;10.65;;;;;;;-145.13;100.00;63600.38;5140340;27;20197;-65
2022/04/01 10:47:15;;;;;;;29.83;9.88;;;;;;;-145.13;100.00;63600.38;5158023;27;20637;-65
2022/04/01 10:52:27;;;;;;;34.97;11.18;;;;;;;-145.13;100.00;63600.38;5157996;27;20636;-66
2022/04/01 10:55:12;;;;;;;37.30;9.98;;;;;;;-145.13;100.00;63600.38;5158267;27;20186;-65
2022/04/01 10:57:41;;;;;;;35.85;8.65;;;;;;;-145.13;100.00;63600.38;5157551;27;20614;-65
2022/04/01 11:00:14;;;;;;;29.70;10.05;;;;;;;-145.13;100.00;63600.38;5157862;27;20202;-65
2022/04/01 11:02:43;;;;;;;34.05;10.45;;;;;;;-145.13;100.00;63600.38;5140219;27;20195;-65
2022/04/01 11:05:25;;;;;;;26.63;9.48;;;;;;;-145.13;100.00;63600.38;5158052;27;20183;-65
2022/04/01 11:08:17;;;;;;;70.15;16.40;;;;;;;-145.13;100.00;63600.38;5157719;27;20201;-65
2022/04/01 11:11:06;;;;;;;31.88;8.45;;;;;;;-145.13;100.00;63600.38;5142629;27;20218;-65
2022/04/01 11:13:32;;;;;;;32.05;7.70;;;;;;;-145.13;100.00;63600.38;5157828;27;20193;-66